Terminal Aerodrome Forecast
Issued by NWS

Home | Current Version | Previous Version | Text Only | Print | Product List | Glossary Off
Versions: 1 2 3 4 5 6 7 8 9 10 11 12 13 14 15 16 17 18 19 20

000
FTUS43 KFGF 201300 AAA
TAFBJI
TAF AMD
KBJI 201324Z 2013/2112 29006KT P6SM SKC
     FM201530 33004KT P6SM BKN012
     FM202300 04008KT P6SM SCT015
     FM210900 12006KT P6SM SCT200=

USA.gov is the U.S. government's official web portal to all federal, state and local government web resources and services.